Airport Name : Calgary Intl

Other Name : Calgary Intl

ICAO : CYYC

IATA : YYC

FAA :

Latitude : 51.113888

Longitude : -114.020278

Country : Canada

Local Date and Time : 7/18/2018 4:00:00 PM

 

TAF (Terminal Aerodrome Forecast)

TAF CYYC 182038Z 1821/1918 06006KT P6SM FEW050 SCT180 BKN240 FM182200 04008KT P6SM BKN050 TEMPO 1822/1903 P6SM -SHRA PROB30 1822/1903 VRB15G25KT 4SM TSRA OVC050CB FM190300 32008KT P6SM SCT080 FM191000 34010KT P6SM SCT012 BKN025 TEMPO 1910/1916 P6SM -SHRA BKN012 BKN025 PROB30 1910/1916 VRB15G25KT 5SM TSRA BKN012 OVC025CB FM191600 02008KT P6SM BKN020 TEMPO 1916/1918 BKN025 RMK NXT FCST BY 190000Z

 

METAR (METeorological Aerodrome Report)

CYYC 182100Z 16008KT 120V210 30SM SCT043CB BKN190 BKN260 23/13 A2999 RMK CB3AC2CI1 SLP145 DENSITY ALT 5300FT

CYYC 182000Z 06003KT 30SM FEW046 SCT190 BKN240 24/13 A3000 RMK CU2AC2CI2 SLP147 DENSITY ALT 5400FT

CYYC 181900Z 08006G15KT 020V110 30SM FEW036 SCT190 23/13 A3000 RMK CU1AC2 SLP148 DENSITY ALT 5300FT